PWSweather.com
Personal Weather Stations
Station Observations
KTXPLANO60
Highlands Of Russell Park, Plano, TX 75025

Highlands Of Russell ParkPlano, TX 75025

Lat: 33.10431671, Lon: -96.75176239

Elevation: 761

Station Type: Davis Wireless VP2 Plus

http://www.planoweather.com

Latest ConditionsUpdated 12:40:11 PM CDT Monday, Jul 25, 2016
Currently Today's Max Today's Min Today's Average
Temperature 89.5°F31.9°C 89.5°F31.9°C 79.1°F26.2°C 82.9°F28.3°C
Dew Point 77.9°F25.5°C 77.9°F25.5°C 71.4°F21.9°C 73.7°F23.2°C
Winds 2.0 mph SSW3.2 kmh SSW 6.9 mph SE11.1 kmh SE - 1.5 mph 2.4 kmh
Wind Gusts 3.0 mph4.8 kmh 14.0 mph22.5 kmh - -
Humidity 69% 82% 59% 74%
Pressure 29.89 in1012.2 mb 29.91 in1012.9 mb 29.84 in1010.5 mb -
Hour Temp Dew Point Humidity Winds Wind Gusts Pressure Precip Precip Rate Daily Precip Total
12:40 PM 89.5°F31.9°C 77.9°F25.5°C 69% 2.0 mph SSW3.2 kmh SSW 3.0 mph4.8 kmh 29.89 in1012.2 mb - 0.00 in0.0 mm 0.00 in0.0 mm
12:30 PM 88.1°F31.2°C 76.6°F24.8°C 69% 0.1 mph SSW0.2 kmh SSW -- 29.89 in1012.2 mb - 0.00 in0.0 mm 0.00 in0.0 mm
12:20 PM 88.2°F31.2°C 76.3°F24.6°C 68% 0.7 mph S1.1 kmh S 1.0 mph1.6 kmh 29.90 in1012.5 mb - 0.00 in0.0 mm 0.00 in0.0 mm
12:10 PM 87.8°F31.0°C 76.8°F24.9°C 70% 0.3 mph S0.5 kmh S 2.0 mph3.2 kmh 29.90 in1012.5 mb - 0.00 in0.0 mm 0.00 in0.0 mm
12:00 PM 87.5°F30.8°C 76.5°F24.7°C 70% 0.3 mph S0.5 kmh S 2.0 mph3.2 kmh 29.90 in1012.5 mb - 0.00 in0.0 mm 0.00 in0.0 mm
11:50 AM 86.8°F30.4°C 76.7°F24.8°C 72% 0.4 mph S0.6 kmh S 1.0 mph1.6 kmh 29.90 in1012.5 mb - 0.00 in0.0 mm 0.00 in0.0 mm
11:40 AM 86.5°F30.3°C 76.8°F24.9°C 73% Calm Calm -- 29.90 in1012.5 mb - 0.00 in0.0 mm 0.00 in0.0 mm
11:30 AM 85.9°F29.9°C 76.7°F24.8°C 74% 0.1 mph S0.2 kmh S 2.0 mph3.2 kmh 29.90 in1012.5 mb - 0.00 in0.0 mm 0.00 in0.0 mm
11:20 AM 85.6°F29.8°C 76.4°F24.7°C 74% 0.4 mph S0.6 kmh S 3.0 mph4.8 kmh 29.90 in1012.5 mb - 0.00 in0.0 mm 0.00 in0.0 mm
11:10 AM 85.7°F29.8°C 76.5°F24.7°C 74% Calm Calm -- 29.90 in1012.5 mb - 0.00 in0.0 mm 0.00 in0.0 mm
11:00 AM 86.0°F30.0°C 76.7°F24.8°C 74% 0.3 mph S0.5 kmh S 2.0 mph3.2 kmh 29.90 in1012.5 mb - 0.00 in0.0 mm 0.00 in0.0 mm
10:50 AM 86.0°F30.0°C 75.9°F24.4°C 72% Calm Calm -- 29.91 in1012.9 mb - 0.00 in0.0 mm 0.00 in0.0 mm
10:40 AM 85.8°F29.9°C 75.8°F24.3°C 72% Calm Calm -- 29.90 in1012.5 mb - 0.00 in0.0 mm 0.00 in0.0 mm
10:30 AM 85.6°F29.8°C 75.5°F24.2°C 72% Calm Calm -- 29.90 in1012.5 mb - 0.00 in0.0 mm 0.00 in0.0 mm
10:20 AM 85.4°F29.7°C 76.2°F24.6°C 74% Calm Calm -- 29.90 in1012.5 mb - 0.00 in0.0 mm 0.00 in0.0 mm
10:10 AM 85.1°F29.5°C 75.8°F24.3°C 74% Calm Calm -- 29.90 in1012.5 mb - 0.00 in0.0 mm 0.00 in0.0 mm
10:00 AM 84.4°F29.1°C 76.0°F24.4°C 76% Calm Calm -- 29.90 in1012.5 mb - 0.00 in0.0 mm 0.00 in0.0 mm
09:50 AM 83.8°F28.8°C 75.4°F24.1°C 76% Calm Calm -- 29.90 in1012.5 mb - 0.00 in0.0 mm 0.00 in0.0 mm
09:40 AM 83.1°F28.4°C 75.2°F24.0°C 77% 1.2 mph S1.9 kmh S 2.0 mph3.2 kmh 29.90 in1012.5 mb - 0.00 in0.0 mm 0.00 in0.0 mm
09:30 AM 82.5°F28.1°C 74.9°F23.8°C 78% 0.1 mph S0.2 kmh S 5.0 mph8.0 kmh 29.90 in1012.5 mb - 0.00 in0.0 mm 0.00 in0.0 mm
09:20 AM 81.9°F27.7°C 74.7°F23.7°C 79% Calm Calm -- 29.90 in1012.5 mb - 0.00 in0.0 mm 0.00 in0.0 mm
09:10 AM 81.3°F27.4°C 74.5°F23.6°C 80% Calm Calm -- 29.90 in1012.5 mb - 0.00 in0.0 mm 0.00 in0.0 mm
09:00 AM 80.9°F27.2°C 74.5°F23.6°C 81% Calm Calm -- 29.90 in1012.5 mb - 0.00 in0.0 mm 0.00 in0.0 mm
08:50 AM 80.6°F27.0°C 74.2°F23.4°C 81% Calm Calm -- 29.91 in1012.9 mb - 0.00 in0.0 mm 0.00 in0.0 mm
08:40 AM 80.5°F26.9°C 74.1°F23.4°C 81% Calm Calm -- 29.90 in1012.5 mb - 0.00 in0.0 mm 0.00 in0.0 mm
08:30 AM 80.3°F26.8°C 74.0°F23.3°C 81% Calm Calm -- 29.90 in1012.5 mb - 0.00 in0.0 mm 0.00 in0.0 mm
08:20 AM 80.2°F26.8°C 73.9°F23.3°C 81% Calm Calm -- 29.90 in1012.5 mb - 0.00 in0.0 mm 0.00 in0.0 mm
08:10 AM 80.2°F26.8°C 73.8°F23.2°C 81% Calm Calm -- 29.90 in1012.5 mb - 0.00 in0.0 mm 0.00 in0.0 mm
08:00 AM 80.0°F26.7°C 73.7°F23.2°C 81% 0.1 mph S0.2 kmh S -- 29.89 in1012.2 mb - 0.00 in0.0 mm 0.00 in0.0 mm
07:50 AM 79.8°F26.6°C 73.4°F23.0°C 81% 0.6 mph S1.0 kmh S 2.0 mph3.2 kmh 29.89 in1012.2 mb - 0.00 in0.0 mm 0.00 in0.0 mm
07:40 AM 79.6°F26.4°C 73.3°F22.9°C 81% 0.3 mph S0.5 kmh S 4.0 mph6.4 kmh 29.89 in1012.2 mb - 0.00 in0.0 mm 0.00 in0.0 mm
07:30 AM 79.4°F26.3°C 73.4°F23.0°C 82% Calm Calm -- 29.89 in1012.2 mb - 0.00 in0.0 mm 0.00 in0.0 mm
07:20 AM 79.2°F26.2°C 73.2°F22.9°C 82% 0.2 mph S0.3 kmh S 1.0 mph1.6 kmh 29.89 in1012.2 mb - 0.00 in0.0 mm 0.00 in0.0 mm
07:10 AM 79.1°F26.2°C 73.1°F22.8°C 82% Calm Calm -- 29.89 in1012.2 mb - 0.00 in0.0 mm 0.00 in0.0 mm
07:00 AM 79.1°F26.2°C 72.8°F22.7°C 81% Calm Calm -- 29.88 in1011.9 mb - 0.00 in0.0 mm 0.00 in0.0 mm
06:50 AM 79.1°F26.2°C 72.8°F22.7°C 81% Calm Calm -- 29.89 in1012.2 mb - 0.00 in0.0 mm 0.00 in0.0 mm
06:40 AM 79.1°F26.2°C 72.8°F22.7°C 81% Calm Calm -- 29.89 in1012.2 mb - 0.00 in0.0 mm 0.00 in0.0 mm
06:30 AM 79.2°F26.2°C 72.9°F22.7°C 81% Calm Calm -- 29.89 in1012.2 mb - 0.00 in0.0 mm 0.00 in0.0 mm
06:20 AM 79.3°F26.3°C 72.6°F22.6°C 80% 0.1 mph S0.2 kmh S 2.0 mph3.2 kmh 29.88 in1011.9 mb - 0.00 in0.0 mm 0.00 in0.0 mm
06:10 AM 79.5°F26.4°C 72.8°F22.7°C 80% Calm Calm -- 29.88 in1011.9 mb - 0.00 in0.0 mm 0.00 in0.0 mm
06:00 AM 79.7°F26.5°C 73.0°F22.8°C 80% Calm Calm -- 29.88 in1011.9 mb - 0.00 in0.0 mm 0.00 in0.0 mm
05:50 AM 79.8°F26.6°C 72.7°F22.6°C 79% Calm Calm -- 29.88 in1011.9 mb - 0.00 in0.0 mm 0.00 in0.0 mm
05:40 AM 80.0°F26.7°C 72.9°F22.7°C 79% 0.5 mph S0.8 kmh S 2.0 mph3.2 kmh 29.88 in1011.9 mb - 0.00 in0.0 mm 0.00 in0.0 mm
05:30 AM 80.0°F26.7°C 72.9°F22.7°C 79% 3.1 mph S5.0 kmh S 7.0 mph11.3 kmh 29.87 in1011.5 mb - 0.00 in0.0 mm 0.00 in0.0 mm
05:20 AM 80.2°F26.8°C 72.7°F22.6°C 78% 1.9 mph S3.1 kmh S 2.0 mph3.2 kmh 29.87 in1011.5 mb - 0.00 in0.0 mm 0.00 in0.0 mm
05:10 AM 80.3°F26.8°C 72.8°F22.7°C 78% 3.6 mph S5.8 kmh S 5.0 mph8.0 kmh 29.87 in1011.5 mb - 0.00 in0.0 mm 0.00 in0.0 mm
05:00 AM 80.4°F26.9°C 72.9°F22.7°C 78% 0.3 mph S0.5 kmh S 1.0 mph1.6 kmh 29.87 in1011.5 mb - 0.00 in0.0 mm 0.00 in0.0 mm
04:50 AM 80.6°F27.0°C 72.7°F22.6°C 77% 2.0 mph S3.2 kmh S 4.0 mph6.4 kmh 29.86 in1011.2 mb - 0.00 in0.0 mm 0.00 in0.0 mm
04:40 AM 80.7°F27.1°C 72.8°F22.7°C 77% 0.6 mph S1.0 kmh S 5.0 mph8.0 kmh 29.86 in1011.2 mb - 0.00 in0.0 mm 0.00 in0.0 mm
04:30 AM 80.9°F27.2°C 72.6°F22.6°C 76% 3.2 mph S5.1 kmh S 5.0 mph8.0 kmh 29.86 in1011.2 mb - 0.00 in0.0 mm 0.00 in0.0 mm
04:20 AM 81.1°F27.3°C 72.8°F22.7°C 76% 0.5 mph S0.8 kmh S 2.0 mph3.2 kmh 29.85 in1010.8 mb - 0.00 in0.0 mm 0.00 in0.0 mm
04:10 AM 81.3°F27.4°C 72.6°F22.6°C 75% 2.8 mph S4.5 kmh S 5.0 mph8.0 kmh 29.86 in1011.2 mb - 0.00 in0.0 mm 0.00 in0.0 mm
04:00 AM 81.5°F27.5°C 72.8°F22.7°C 75% 3.7 mph S6.0 kmh S 5.0 mph8.0 kmh 29.86 in1011.2 mb - 0.00 in0.0 mm 0.00 in0.0 mm
03:50 AM 81.7°F27.6°C 72.6°F22.6°C 74% 0.8 mph S1.3 kmh S 6.0 mph9.7 kmh 29.86 in1011.2 mb - 0.00 in0.0 mm 0.00 in0.0 mm
03:40 AM 81.9°F27.7°C 72.8°F22.7°C 74% 1.8 mph S2.9 kmh S 5.0 mph8.0 kmh 29.86 in1011.2 mb - 0.00 in0.0 mm 0.00 in0.0 mm
03:30 AM 82.0°F27.8°C 72.9°F22.7°C 74% 2.9 mph S4.7 kmh S 6.0 mph9.7 kmh 29.85 in1010.8 mb - 0.00 in0.0 mm 0.00 in0.0 mm
03:20 AM 82.0°F27.8°C 72.5°F22.5°C 73% 4.7 mph S7.6 kmh S 9.0 mph14.5 kmh 29.85 in1010.8 mb - 0.00 in0.0 mm 0.00 in0.0 mm
03:10 AM 82.1°F27.8°C 72.6°F22.6°C 73% 3.6 mph SSE5.8 kmh SSE 8.0 mph12.9 kmh 29.86 in1011.2 mb - 0.00 in0.0 mm 0.00 in0.0 mm
03:00 AM 82.3°F27.9°C 72.4°F22.4°C 72% 4.0 mph SSE6.4 kmh SSE 6.0 mph9.7 kmh 29.85 in1010.8 mb - 0.00 in0.0 mm 0.00 in0.0 mm
02:50 AM 82.5°F28.1°C 72.6°F22.6°C 72% 2.5 mph SSE4.0 kmh SSE 4.0 mph6.4 kmh 29.85 in1010.8 mb - 0.00 in0.0 mm 0.00 in0.0 mm
02:40 AM 82.7°F28.2°C 72.3°F22.4°C 71% 1.1 mph SSE1.8 kmh SSE 8.0 mph12.9 kmh 29.85 in1010.8 mb - 0.00 in0.0 mm 0.00 in0.0 mm
02:30 AM 82.9°F28.3°C 72.5°F22.5°C 71% 0.8 mph SSE1.3 kmh SSE 4.0 mph6.4 kmh 29.85 in1010.8 mb - 0.00 in0.0 mm 0.00 in0.0 mm
02:20 AM 83.1°F28.4°C 72.3°F22.4°C 70% 2.0 mph SSE3.2 kmh SSE 4.0 mph6.4 kmh 29.84 in1010.5 mb - 0.00 in0.0 mm 0.00 in0.0 mm
02:10 AM 83.3°F28.5°C 72.5°F22.5°C 70% 3.8 mph SSE6.1 kmh SSE 5.0 mph8.0 kmh 29.85 in1010.8 mb - 0.00 in0.0 mm 0.00 in0.0 mm
02:00 AM 83.5°F28.6°C 72.7°F22.6°C 70% 4.3 mph SSE6.9 kmh SSE 6.0 mph9.7 kmh 29.85 in1010.8 mb - 0.00 in0.0 mm 0.00 in0.0 mm
01:50 AM 83.7°F28.7°C 72.4°F22.4°C 69% 4.0 mph SSE6.4 kmh SSE 8.0 mph12.9 kmh 29.85 in1010.8 mb - 0.00 in0.0 mm 0.00 in0.0 mm
01:40 AM 83.9°F28.8°C 72.6°F22.6°C 69% 5.4 mph SSE8.7 kmh SSE 10.0 mph16.1 kmh 29.85 in1010.8 mb - 0.00 in0.0 mm 0.00 in0.0 mm
01:30 AM 84.3°F29.1°C 72.6°F22.6°C 68% 2.7 mph SE4.3 kmh SE 5.0 mph8.0 kmh 29.85 in1010.8 mb - 0.00 in0.0 mm 0.00 in0.0 mm
01:20 AM 84.8°F29.3°C 72.6°F22.6°C 67% 4.6 mph SE7.4 kmh SE 8.0 mph12.9 kmh 29.85 in1010.8 mb - 0.00 in0.0 mm 0.00 in0.0 mm
01:10 AM 85.3°F29.6°C 72.2°F22.3°C 65% 4.5 mph SE7.2 kmh SE 6.0 mph9.7 kmh 29.86 in1011.2 mb - 0.00 in0.0 mm 0.00 in0.0 mm
01:00 AM 85.9°F29.9°C 71.8°F22.1°C 63% 6.0 mph SE9.7 kmh SE 14.0 mph22.5 kmh 29.86 in1011.2 mb - 0.00 in0.0 mm 0.00 in0.0 mm
12:50 AM 86.3°F30.2°C 71.7°F22.1°C 62% 3.1 mph SSE5.0 kmh SSE 5.0 mph8.0 kmh 29.86 in1011.2 mb - 0.00 in0.0 mm 0.00 in0.0 mm
12:40 AM 86.6°F30.3°C 71.5°F21.9°C 61% 5.0 mph SE8.0 kmh SE 7.0 mph11.3 kmh 29.85 in1010.8 mb - 0.00 in0.0 mm 0.00 in0.0 mm
12:30 AM 86.9°F30.5°C 71.4°F21.9°C 60% 6.9 mph SE11.1 kmh SE 12.0 mph19.3 kmh 29.86 in1011.2 mb - 0.00 in0.0 mm 0.00 in0.0 mm
12:20 AM 87.1°F30.6°C 71.6°F22.0°C 60% 4.0 mph SE6.4 kmh SE 8.0 mph12.9 kmh 29.86 in1011.2 mb - 0.00 in0.0 mm 0.00 in0.0 mm
12:10 AM 87.3°F30.7°C 71.7°F22.1°C 60% 4.4 mph SE7.1 kmh SE 8.0 mph12.9 kmh 29.86 in1011.2 mb - 0.00 in0.0 mm 0.00 in0.0 mm
12:00 AM 87.5°F30.8°C 71.4°F21.9°C 59% 2.8 mph SE4.5 kmh SE 8.0 mph12.9 kmh 29.86 in1011.2 mb - 0.00 in0.0 mm 0.00 in0.0 mm